Time;durP1;ratioP1;P1;durP2;ratioP2;P2;SDS_P1;SDS_P2;PMS_P1;PMS_P2;Temp;Humidity;BMP_temperature;BMP_pressure;BME280_temperature;BME280_humidity;BME280_pressure;Samples;Min_cycle;Max_cycle;Signal;HPM_P1;HPM_P2
2022/03/07 00:02:43;;;;;;;26.20;14.90;;;;;;;-1.80;62.18;99177.45;218816;1276;22693;-67
2022/03/07 00:07:53;;;;;;;27.20;15.30;;;;;;;-1.81;62.15;99181.23;218908;1277;22573;-70
2022/03/07 00:13:23;;;;;;;25.50;14.30;;;;;;;-1.82;62.33;99178.30;219539;1276;22550;-70
2022/03/07 00:18:26;;;;;;;24.50;15.20;;;;;;;-1.85;62.34;99183.02;218846;1277;22796;-69
2022/03/07 00:23:47;;;;;;;26.60;16.00;;;;;;;-1.85;62.57;99182.52;219046;1276;22529;-70
2022/03/07 00:29:17;;;;;;;26.00;14.80;;;;;;;-1.85;62.55;99184.91;218891;1276;26420;-69
2022/03/07 00:34:19;;;;;;;23.00;14.20;;;;;;;-1.86;62.27;99187.16;218910;1276;22500;-69
2022/03/07 00:39:21;;;;;;;28.00;15.70;;;;;;;-1.90;62.54;99187.27;218887;1276;24315;-70
2022/03/07 00:44:24;;;;;;;24.50;14.50;;;;;;;-1.93;62.81;99182.22;218845;1277;24175;-69
2022/03/07 00:49:27;;;;;;;23.70;14.20;;;;;;;-1.96;62.98;99185.72;219027;1276;24378;-69
2022/03/07 00:54:29;;;;;;;26.70;15.40;;;;;;;-1.98;63.11;99182.55;219017;1276;22544;-69
2022/03/07 00:59:40;;;;;;;27.00;15.60;;;;;;;-2.00;63.23;99182.03;218885;1277;22626;-69
2022/03/07 01:04:43;;;;;;;27.80;16.00;;;;;;;-2.01;63.26;99185.89;218787;1276;22697;-70
2022/03/07 01:09:45;;;;;;;23.40;14.60;;;;;;;-2.02;63.42;99184.92;219030;1276;22554;-70
2022/03/07 01:14:47;;;;;;;27.20;15.90;;;;;;;-2.01;63.54;99178.92;219042;1277;26265;-69
2022/03/07 01:19:52;;;;;;;28.40;17.40;;;;;;;-2.01;63.52;99175.01;218847;1276;23352;-70
2022/03/07 01:24:54;;;;;;;26.20;15.30;;;;;;;-2.00;63.68;99170.55;218922;1276;22893;-72
2022/03/07 01:29:56;;;;;;;25.80;14.80;;;;;;;-2.01;63.67;99171.08;218899;1276;26783;-70
2022/03/07 01:34:58;;;;;;;22.10;14.20;;;;;;;-2.03;63.83;99172.19;218756;1276;24704;-69
2022/03/07 01:40:01;;;;;;;23.20;13.50;;;;;;;-2.08;63.37;99164.38;218913;1277;24833;-69
2022/03/07 01:45:15;;;;;;;21.50;13.30;;;;;;;-2.14;63.09;99167.19;219016;1276;22563;-69
2022/03/07 01:50:20;;;;;;;24.80;13.30;;;;;;;-2.16;63.18;99167.83;219025;1276;24370;-70
2022/03/07 01:55:35;;;;;;;22.20;14.10;;;;;;;-2.16;62.86;99162.98;219016;1277;25746;-69
2022/03/07 02:01:22;;;;;;;22.10;14.30;;;;;;;-2.16;62.15;99151.73;218761;1278;22547;-69
2022/03/07 02:06:34;;;;;;;23.20;15.00;;;;;;;-2.16;62.07;99145.42;218854;1277;22602;-70
2022/03/07 02:12:05;;;;;;;24.10;14.60;;;;;;;-2.15;61.88;99143.16;218836;1277;22646;-69
2022/03/07 02:17:38;;;;;;;20.60;12.50;;;;;;;-2.14;62.14;99139.43;218871;1276;23752;-70
2022/03/07 02:23:31;;;;;;;23.80;13.80;;;;;;;-2.13;62.10;99135.08;218759;1276;22867;-69
2022/03/07 02:28:53;;;;;;;22.20;13.80;;;;;;;-2.12;61.96;99131.33;218967;1277;22779;-70
2022/03/07 02:34:20;;;;;;;19.70;12.70;;;;;;;-2.11;61.78;99127.50;218962;1277;24268;-69
2022/03/07 02:46:23;;;;;;;25.10;12.70;;;;;;;-2.13;61.96;99132.05;218845;1277;24393;-69
2022/03/07 02:51:49;;;;;;;23.70;13.00;;;;;;;-2.13;61.95;99127.56;218969;1276;24258;-69
2022/03/07 02:57:18;;;;;;;23.80;14.90;;;;;;;-2.14;62.19;99130.27;218796;1278;25553;-69
2022/03/07 03:03:00;;;;;;;24.40;14.90;;;;;;;-2.16;62.44;99127.56;218709;1277;27442;-68
2022/03/07 03:08:16;;;;;;;24.10;14.50;;;;;;;-2.20;62.61;99124.96;218811;1277;22609;-70
2022/03/07 03:13:20;;;;;;;23.20;14.70;;;;;;;-2.24;62.72;99125.84;218866;1277;25539;-69
2022/03/07 03:18:36;;;;;;;23.10;13.60;;;;;;;-2.27;62.80;99126.04;218777;1277;25437;-69
2022/03/07 03:23:39;;;;;;;23.50;14.40;;;;;;;-2.28;63.21;99118.27;218640;1276;25633;-69
2022/03/07 03:28:50;;;;;;;22.30;12.70;;;;;;;-2.26;63.26;99118.48;218632;1277;22588;-69
2022/03/07 03:34:12;;;;;;;18.70;12.10;;;;;;;-2.28;62.58;99108.39;218807;1277;25319;-68
2022/03/07 03:39:14;;;;;;;15.80;11.00;;;;;;;-2.31;61.95;99105.30;219031;1277;22611;-69
2022/03/07 03:44:17;;;;;;;18.20;11.90;;;;;;;-2.35;61.52;99103.71;218888;1277;22785;-70
2022/03/07 03:49:23;;;;;;;16.90;11.60;;;;;;;-2.38;61.62;99105.36;218720;1277;22601;-69
2022/03/07 03:54:28;;;;;;;18.10;11.40;;;;;;;-2.43;61.93;99102.27;218780;1277;24144;-70
2022/03/07 03:59:35;;;;;;;16.80;11.20;;;;;;;-2.46;61.84;99104.91;218865;1277;22557;-69
2022/03/07 04:04:40;;;;;;;19.30;11.60;;;;;;;-2.48;62.23;99108.51;218628;1277;25678;-69
2022/03/07 04:09:42;;;;;;;18.80;12.00;;;;;;;-2.47;62.42;99106.17;218624;1277;25631;-68
2022/03/07 04:14:45;;;;;;;16.60;10.50;;;;;;;-2.45;62.38;99102.62;218529;1277;25594;-69
2022/03/07 04:19:47;;;;;;;16.70;10.60;;;;;;;-2.45;62.37;99098.02;218713;1276;23324;-70
2022/03/07 04:24:50;;;;;;;16.00;10.70;;;;;;;-2.45;62.51;99093.86;218709;1277;22541;-69
2022/03/07 04:29:54;;;;;;;15.80;10.20;;;;;;;-2.46;62.47;99100.41;218794;1277;25507;-69
2022/03/07 04:34:57;;;;;;;16.10;10.20;;;;;;;-2.46;62.47;99093.42;218762;1277;22713;-69
2022/03/07 04:40:02;;;;;;;16.80;11.10;;;;;;;-2.45;62.51;99095.40;218616;1278;22690;-69
2022/03/07 04:45:05;;;;;;;19.60;10.70;;;;;;;-2.45;62.62;99096.48;218717;1277;22563;-68
2022/03/07 04:50:08;;;;;;;15.90;10.50;;;;;;;-2.44;62.88;99085.98;219193;1277;24346;-67
2022/03/07 04:55:15;;;;;;;16.30;9.80;;;;;;;-2.41;63.19;99082.30;218801;1277;22537;-69
2022/03/07 05:00:20;;;;;;;16.70;10.60;;;;;;;-2.37;63.08;99091.30;218930;1277;23400;-69
2022/03/07 05:05:26;;;;;;;15.60;9.80;;;;;;;-2.35;63.03;99097.57;218917;1276;22590;-68
2022/03/07 05:10:32;;;;;;;16.20;9.70;;;;;;;-2.34;62.94;99101.89;218760;1277;22627;-68
2022/03/07 05:15:35;;;;;;;14.30;9.40;;;;;;;-2.34;62.91;99102.25;218833;1277;22568;-69
2022/03/07 05:20:37;;;;;;;18.60;10.50;;;;;;;-2.33;62.88;99110.00;218845;1277;22698;-69
2022/03/07 05:25:57;;;;;;;18.70;9.70;;;;;;;-2.34;62.96;99104.80;218925;1277;22725;-69
2022/03/07 05:31:00;;;;;;;14.30;9.00;;;;;;;-2.33;62.88;99107.84;218655;1276;22649;-68
2022/03/07 05:36:02;;;;;;;15.00;9.90;;;;;;;-2.32;62.94;99115.06;218726;1277;22695;-71
2022/03/07 05:41:04;;;;;;;15.40;10.10;;;;;;;-2.31;62.94;99117.98;218561;1277;22541;-70
2022/03/07 05:46:23;;;;;;;22.30;11.30;;;;;;;-2.30;62.72;99127.80;218688;1277;22600;-69
2022/03/07 05:51:48;;;;;;;15.90;10.10;;;;;;;-2.27;62.84;99130.02;218847;1277;22601;-70
2022/03/07 05:56:51;;;;;;;21.90;11.50;;;;;;;-2.24;62.81;99130.27;218644;1276;22651;-68
2022/03/07 06:01:53;;;;;;;16.40;10.40;;;;;;;-2.17;62.86;99132.83;218741;1278;22567;-69
2022/03/07 06:06:56;;;;;;;18.90;11.20;;;;;;;-2.12;62.60;99130.21;218730;1277;22529;-69
2022/03/07 06:11:58;;;;;;;17.10;10.00;;;;;;;-2.05;62.68;99131.31;218708;1277;22569;-69
2022/03/07 06:17:01;;;;;;;17.30;10.80;;;;;;;-2.00;62.78;99136.79;218807;1276;25448;-68
2022/03/07 06:22:04;;;;;;;16.90;10.90;;;;;;;-1.97;62.75;99132.11;218844;1276;22570;-71
2022/03/07 06:27:06;;;;;;;19.40;10.80;;;;;;;-1.90;62.79;99129.66;218398;1276;22548;-69
2022/03/07 06:32:09;;;;;;;15.10;10.30;;;;;;;-1.82;62.60;99124.99;218866;1277;22684;-69
2022/03/07 06:37:24;;;;;;;17.20;11.00;;;;;;;-1.77;62.37;99135.91;218562;1276;22617;-70
2022/03/07 06:42:26;;;;;;;17.40;10.60;;;;;;;-1.69;62.39;99138.91;218548;1276;22560;-69
2022/03/07 06:47:29;;;;;;;16.00;10.40;;;;;;;-1.59;62.43;99131.78;218404;1278;24897;-69
2022/03/07 06:52:31;;;;;;;18.50;11.40;;;;;;;-1.46;62.27;99134.14;218297;1276;24468;-70
2022/03/07 06:57:33;;;;;;;20.00;11.50;;;;;;;-1.31;62.21;99140.06;218175;1276;24345;-68
2022/03/07 07:02:36;;;;;;;14.60;10.10;;;;;;;-1.13;61.97;99142.15;217984;1278;26397;-67
2022/03/07 07:07:39;;;;;;;15.80;9.70;;;;;;;-0.98;61.72;99133.61;217987;1276;25054;-69
2022/03/07 07:12:42;;;;;;;16.60;9.90;;;;;;;-0.81;61.17;99133.55;218393;1276;22589;-68
2022/03/07 07:17:46;;;;;;;16.40;9.10;;;;;;;-0.67;60.88;99138.91;217649;1276;22619;-68
2022/03/07 07:22:51;;;;;;;14.70;8.30;;;;;;;-0.57;60.17;99135.57;218842;1276;740955;-67
2022/03/07 07:27:54;;;;;;;13.30;8.30;;;;;;;-0.48;59.95;99138.45;218207;1276;23288;-69
2022/03/07 07:33:07;;;;;;;13.20;9.10;;;;;;;-0.37;59.30;99145.68;217909;1276;25356;-70
2022/03/07 07:38:09;;;;;;;14.10;8.80;;;;;;;-0.29;58.87;99151.00;218189;1276;24468;-70
2022/03/07 07:43:17;;;;;;;13.10;8.40;;;;;;;-0.26;58.51;99149.33;218165;1276;25083;-68
2022/03/07 07:48:19;;;;;;;13.60;8.10;;;;;;;-0.16;58.32;99151.31;218125;1276;24147;-70
2022/03/07 07:53:21;;;;;;;13.00;8.10;;;;;;;-0.01;57.96;99148.83;218270;1277;22621;-69
2022/03/07 07:58:24;;;;;;;11.70;7.80;;;;;;;0.12;57.50;99144.17;218323;1276;25314;-68
2022/03/07 08:03:27;;;;;;;10.70;6.80;;;;;;;0.29;57.46;99139.05;218247;1276;27030;-69
2022/03/07 08:08:30;;;;;;;10.20;6.40;;;;;;;0.41;56.28;99137.96;218250;1276;25430;-70
2022/03/07 08:13:32;;;;;;;12.30;7.40;;;;;;;0.51;56.05;99136.28;218190;1276;25434;-69
2022/03/07 08:18:34;;;;;;;11.90;6.70;;;;;;;0.63;55.95;99143.83;218532;1276;25299;-70
2022/03/07 08:23:36;;;;;;;9.80;6.60;;;;;;;0.78;55.98;99140.43;218774;1276;23084;-69
2022/03/07 08:28:41;;;;;;;11.70;6.80;;;;;;;0.93;55.49;99136.49;218696;1276;22568;-69
2022/03/07 08:33:44;;;;;;;9.00;6.50;;;;;;;1.09;55.54;99133.14;218411;1276;25552;-69
2022/03/07 08:38:46;;;;;;;9.30;5.90;;;;;;;1.23;54.36;99133.58;218679;1276;23059;-69
2022/03/07 08:43:50;;;;;;;7.90;5.10;;;;;;;1.28;54.21;99134.98;219659;1276;24820;-69
2022/03/07 08:48:52;;;;;;;8.30;5.30;;;;;;;1.31;53.40;99142.84;218972;1276;25258;-69
2022/03/07 08:53:55;;;;;;;9.30;5.80;;;;;;;1.37;53.91;99139.36;218451;1276;24811;-69
2022/03/07 08:58:57;;;;;;;7.40;5.10;;;;;;;1.50;53.61;99144.72;218325;1276;25262;-69
2022/03/07 09:04:34;;;;;;;9.70;4.90;;;;;;;1.58;53.27;99144.06;218160;1276;22594;-67
2022/03/07 09:09:36;;;;;;;10.20;5.50;;;;;;;1.62;52.46;99144.80;218166;1276;22554;-68
2022/03/07 09:14:41;;;;;;;8.20;5.50;;;;;;;1.55;52.35;99145.88;217964;1276;25491;-69
2022/03/07 09:19:43;;;;;;;6.70;5.20;;;;;;;1.54;52.25;99139.19;218118;1276;25373;-69
2022/03/07 09:24:46;;;;;;;9.10;5.10;;;;;;;1.52;52.59;99133.77;217856;1276;25262;-69
2022/03/07 09:29:49;;;;;;;5.50;3.60;;;;;;;1.63;52.71;99130.36;217879;1276;23843;-69
2022/03/07 09:34:51;;;;;;;5.20;3.10;;;;;;;1.58;51.60;99129.15;218518;1277;23876;-69
2022/03/07 09:39:53;;;;;;;4.40;3.40;;;;;;;1.42;51.68;99127.86;220414;1276;22568;-69
2022/03/07 09:44:55;;;;;;;3.40;2.90;;;;;;;1.35;51.75;99120.59;217980;1276;22559;-69
2022/03/07 09:49:58;;;;;;;5.30;3.70;;;;;;;1.44;51.81;99123.21;218117;1276;22548;-69
2022/03/07 09:55:04;;;;;;;7.20;4.20;;;;;;;1.60;51.93;99118.40;218043;1276;25432;-69
2022/03/07 10:00:08;;;;;;;5.90;3.70;;;;;;;1.95;52.36;99117.77;218246;1276;24832;-69
2022/03/07 10:05:10;;;;;;;5.10;3.60;;;;;;;2.24;51.43;99120.27;218841;1276;22534;-69
2022/03/07 10:10:13;;;;;;;6.50;4.20;;;;;;;2.37;51.44;99109.80;218057;1276;25374;-68
2022/03/07 10:15:18;;;;;;;6.40;3.90;;;;;;;2.48;51.38;99116.18;217966;1276;23014;-70
2022/03/07 10:20:24;;;;;;;8.90;6.00;;;;;;;2.50;51.04;99116.16;218470;1276;22603;-69
2022/03/07 10:25:29;;;;;;;7.70;5.70;;;;;;;2.56;51.01;99121.91;218025;1276;24715;-70
2022/03/07 10:30:36;;;;;;;7.20;5.00;;;;;;;2.50;51.22;99116.64;218348;1276;22666;-69
2022/03/07 10:35:50;;;;;;;8.20;5.60;;;;;;;2.50;51.45;99125.96;218088;1276;22607;-68
2022/03/07 10:40:54;;;;;;;9.50;6.00;;;;;;;2.51;51.63;99124.23;219004;1276;23610;-69
2022/03/07 10:45:59;;;;;;;9.20;5.20;;;;;;;2.49;51.80;99113.69;217772;1276;22711;-69
2022/03/07 10:51:05;;;;;;;7.80;5.10;;;;;;;2.67;52.39;99113.04;218514;1276;22632;-69
2022/03/07 10:56:13;;;;;;;8.90;5.10;;;;;;;2.93;52.27;99109.93;217987;1276;22562;-66
2022/03/07 11:01:28;;;;;;;8.70;6.00;;;;;;;3.01;51.45;99107.25;218263;1276;22548;-69
2022/03/07 11:06:34;;;;;;;8.50;6.10;;;;;;;2.95;51.49;99109.34;219823;1276;22538;-67
2022/03/07 11:11:39;;;;;;;8.90;5.80;;;;;;;2.69;51.95;99099.26;217967;1276;24355;-68
2022/03/07 11:16:45;;;;;;;11.40;7.00;;;;;;;2.66;52.81;99095.02;218447;1276;22683;-69
2022/03/07 11:21:52;;;;;;;9.60;6.90;;;;;;;2.77;52.72;99097.02;218287;1276;22560;-70
2022/03/07 11:27:08;;;;;;;12.10;7.40;;;;;;;2.88;53.02;99093.41;218070;1276;24191;-70
2022/03/07 11:32:18;;;;;;;9.50;5.60;;;;;;;2.90;53.09;99094.47;220504;1276;22553;-68
2022/03/07 11:37:22;;;;;;;7.30;5.20;;;;;;;2.94;52.77;99090.98;218487;1276;24406;-69
2022/03/07 11:42:36;;;;;;;9.90;5.40;;;;;;;2.94;52.56;99094.50;218185;1274;24802;-68
2022/03/07 11:47:39;;;;;;;9.40;5.90;;;;;;;3.06;53.23;99087.19;219217;1276;24340;-69
2022/03/07 11:52:55;;;;;;;10.40;6.00;;;;;;;3.18;52.74;99084.69;218521;1276;24271;-70
2022/03/07 11:58:15;;;;;;;10.70;7.00;;;;;;;3.15;52.96;99076.61;218387;1276;25401;-68
2022/03/07 12:03:26;;;;;;;10.20;6.30;;;;;;;3.19;53.24;99071.20;218353;1276;24471;-69
2022/03/07 12:08:52;;;;;;;9.40;6.20;;;;;;;3.32;53.25;99067.98;218363;1276;23130;-69
2022/03/07 12:14:05;;;;;;;9.30;5.80;;;;;;;3.51;53.33;99066.31;218928;1276;25903;-69
2022/03/07 12:19:07;;;;;;;7.70;5.20;;;;;;;3.57;52.95;99055.20;218293;1276;22549;-69
2022/03/07 12:24:13;;;;;;;7.40;4.70;;;;;;;3.68;53.07;99049.33;218283;1276;22566;-68
2022/03/07 12:29:21;;;;;;;6.30;4.50;;;;;;;3.81;52.74;99051.14;218458;1276;24268;-69
2022/03/07 12:34:29;;;;;;;7.00;4.90;;;;;;;3.80;52.42;99036.70;218405;1276;22588;-68
2022/03/07 12:39:42;;;;;;;7.10;4.80;;;;;;;3.70;52.38;99035.73;218529;1276;22569;-68
2022/03/07 12:44:47;;;;;;;7.90;5.00;;;;;;;3.69;52.40;99033.58;218291;1276;24112;-67
2022/03/07 12:49:50;;;;;;;7.50;5.20;;;;;;;3.72;52.18;99027.28;219100;1276;24801;-67
2022/03/07 12:54:54;;;;;;;6.60;4.60;;;;;;;3.76;52.16;99019.78;218190;1276;24344;-67
2022/03/07 13:00:05;;;;;;;7.70;5.10;;;;;;;3.72;52.24;99020.96;218205;1276;25327;-67
2022/03/07 13:05:17;;;;;;;9.90;4.50;;;;;;;3.67;52.38;99018.19;218018;1276;22593;-67
2022/03/07 13:10:21;;;;;;;6.90;5.30;;;;;;;3.71;52.67;99016.66;218107;1276;26465;-69
2022/03/07 13:15:34;;;;;;;7.10;5.00;;;;;;;3.76;52.50;99011.58;218248;1276;24299;-67
2022/03/07 13:20:39;;;;;;;8.20;5.20;;;;;;;3.72;52.78;99013.36;218135;1276;24371;-67
2022/03/07 13:25:43;;;;;;;6.40;4.80;;;;;;;3.66;52.91;99015.31;218238;1276;27594;-66
2022/03/07 13:30:49;;;;;;;7.00;4.70;;;;;;;3.60;52.90;99011.02;218354;1276;22709;-67
2022/03/07 13:35:52;;;;;;;6.60;4.80;;;;;;;3.52;52.86;99011.08;218175;1276;24088;-67
2022/03/07 13:41:05;;;;;;;7.70;4.80;;;;;;;3.46;53.29;99000.14;217802;1276;23351;-67
2022/03/07 13:46:18;;;;;;;9.40;5.00;;;;;;;3.52;53.79;99001.48;218401;1276;22606;-67
2022/03/07 13:51:29;;;;;;;7.20;5.00;;;;;;;3.59;53.74;98999.16;218413;1276;22709;-65
2022/03/07 13:56:32;;;;;;;7.10;4.70;;;;;;;3.61;53.85;99001.95;218168;1276;25448;-67
2022/03/07 14:01:34;;;;;;;7.70;4.70;;;;;;;3.59;53.76;98998.27;218200;1276;25454;-66
2022/03/07 14:06:38;;;;;;;5.30;3.70;;;;;;;3.55;53.89;98998.89;219155;1276;25238;-67
2022/03/07 14:11:42;;;;;;;6.70;4.10;;;;;;;3.50;53.88;99000.82;218311;1276;23802;-67
2022/03/07 14:16:55;;;;;;;4.40;3.20;;;;;;;3.44;54.05;99006.67;222034;1276;25253;-68
2022/03/07 14:21:57;;;;;;;5.10;3.30;;;;;;;3.29;54.17;99009.57;218030;1276;22570;-66
2022/03/07 14:27:00;;;;;;;5.10;3.40;;;;;;;3.09;54.64;99008.22;218431;1276;22544;-68
2022/03/07 14:32:03;;;;;;;4.80;2.80;;;;;;;2.95;55.42;99009.33;218141;1276;22715;-66
2022/03/07 14:37:06;;;;;;;6.40;3.50;;;;;;;2.97;55.99;99010.65;218568;1276;25255;-67
2022/03/07 14:42:32;;;;;;;4.70;3.10;;;;;;;3.06;56.01;99005.39;221414;1276;25258;-68
2022/03/07 14:47:41;;;;;;;4.70;3.00;;;;;;;3.12;55.89;99001.66;218192;1276;26385;-69
2022/03/07 14:52:47;;;;;;;4.40;3.20;;;;;;;3.09;55.82;99002.04;218910;1276;25389;-68
2022/03/07 14:57:50;;;;;;;4.90;2.80;;;;;;;3.06;56.02;99002.05;218173;1276;24236;-68
2022/03/07 15:02:52;;;;;;;5.60;3.60;;;;;;;3.09;56.18;99010.17;218739;1276;22587;-68
2022/03/07 15:07:55;;;;;;;5.20;3.60;;;;;;;3.18;56.42;99016.19;218839;1276;22632;-70
2022/03/07 15:12:57;;;;;;;8.10;3.70;;;;;;;3.22;56.15;99024.30;218720;1276;23868;-69
2022/03/07 15:18:18;;;;;;;5.80;3.20;;;;;;;3.20;56.28;99023.41;218663;1276;23349;-69
2022/03/07 15:23:23;;;;;;;5.70;3.60;;;;;;;3.12;56.53;99019.33;218663;1274;25724;-69
2022/03/07 15:28:25;;;;;;;5.40;3.30;;;;;;;2.99;56.93;99012.98;218682;1276;25368;-69
2022/03/07 15:33:27;;;;;;;6.20;3.90;;;;;;;2.83;57.71;99006.34;219118;1276;22656;-69
2022/03/07 15:38:30;;;;;;;10.30;4.00;;;;;;;2.53;59.22;99004.16;219110;1276;25351;-69
2022/03/07 15:43:32;;;;;;;5.80;3.60;;;;;;;2.20;60.21;98996.19;219005;1276;22573;-68
2022/03/07 15:48:40;;;;;;;7.50;4.60;;;;;;;1.98;61.01;98995.50;218660;1276;25775;-68
2022/03/07 15:53:43;;;;;;;8.90;5.60;;;;;;;1.74;61.84;98994.38;218923;1276;22573;-69
2022/03/07 15:58:48;;;;;;;10.70;6.60;;;;;;;1.52;62.81;98992.98;218752;1276;22600;-69
2022/03/07 16:03:52;;;;;;;13.70;7.10;;;;;;;1.31;63.43;98996.61;219057;1276;24379;-69
2022/03/07 16:08:55;;;;;;;17.00;7.30;;;;;;;1.13;64.12;98991.94;218868;1276;22557;-69
2022/03/07 16:13:57;;;;;;;20.20;8.50;;;;;;;1.00;64.42;98989.58;218979;1276;25380;-69
2022/03/07 16:19:14;;;;;;;17.00;9.10;;;;;;;0.85;65.30;98995.50;219355;1276;24262;-71
2022/03/07 16:24:40;;;;;;;17.10;9.40;;;;;;;0.72;65.80;98997.02;219022;1276;25206;-69
2022/03/07 16:29:43;;;;;;;18.00;9.30;;;;;;;0.60;66.29;99002.77;218706;1279;23019;-69
2022/03/07 16:34:45;;;;;;;19.70;10.20;;;;;;;0.49;66.43;99012.92;218948;1276;22560;-69
2022/03/07 16:39:47;;;;;;;17.30;9.10;;;;;;;0.40;66.90;99019.81;218580;1276;22555;-69
2022/03/07 16:44:50;;;;;;;15.40;8.10;;;;;;;0.35;67.09;99029.84;218590;1278;22568;-71
2022/03/07 16:49:52;;;;;;;21.00;8.70;;;;;;;0.29;67.47;99039.11;218879;1276;22721;-69
2022/03/07 16:54:55;;;;;;;17.60;9.20;;;;;;;0.27;67.53;99050.66;218904;1276;26578;-70
2022/03/07 16:59:57;;;;;;;18.90;9.40;;;;;;;0.29;67.84;99058.70;218806;1276;22541;-69
2022/03/07 17:05:10;;;;;;;24.70;11.60;;;;;;;0.32;67.91;99068.52;218949;1276;26489;-68
2022/03/07 17:10:13;;;;;;;25.20;11.30;;;;;;;0.34;67.84;99070.14;218788;1276;22556;-67
2022/03/07 17:15:24;;;;;;;28.60;13.60;;;;;;;0.37;68.05;99074.63;218611;1276;22694;-68
2022/03/07 17:20:47;;;;;;;25.50;12.20;;;;;;;0.36;68.22;99080.06;218569;1277;25417;-69
2022/03/07 17:26:04;;;;;;;29.80;14.10;;;;;;;0.33;68.13;99086.89;218806;1277;22541;-68
2022/03/07 17:31:13;;;;;;;31.70;15.90;;;;;;;0.29;68.42;99094.62;218534;1276;24259;-70
2022/03/07 17:36:16;;;;;;;37.00;17.00;;;;;;;0.26;68.47;99104.45;218785;1276;25670;-70
2022/03/07 17:41:41;;;;;;;45.10;20.10;;;;;;;0.27;68.70;99107.73;218733;1276;22660;-69
2022/03/07 17:46:46;;;;;;;39.40;20.70;;;;;;;0.28;68.80;99107.23;219071;1276;25464;-70
2022/03/07 17:52:00;;;;;;;46.40;22.10;;;;;;;0.26;68.97;99108.71;218858;1276;22633;-69
2022/03/07 17:57:07;;;;;;;48.00;23.40;;;;;;;0.23;69.05;99108.20;218936;1276;25261;-69
2022/03/07 18:02:09;;;;;;;63.60;30.60;;;;;;;0.21;69.43;99110.04;218810;1276;25334;-69
2022/03/07 18:07:22;;;;;;;75.60;35.30;;;;;;;0.17;69.47;99111.52;218591;1276;27629;-69
2022/03/07 18:12:28;;;;;;;74.90;35.20;;;;;;;0.13;69.83;99111.79;218720;1276;25576;-69
2022/03/07 18:17:47;;;;;;;65.80;30.90;;;;;;;0.08;69.92;99113.32;218795;1276;22542;-68
2022/03/07 18:23:58;;;;;;;55.70;25.50;;;;;;;0.06;69.97;99116.09;218762;1276;22558;-70
2022/03/07 18:29:19;;;;;;;43.50;22.20;;;;;;;0.07;70.33;99113.71;219558;1278;24265;-69
2022/03/07 18:34:22;;;;;;;60.10;28.90;;;;;;;0.11;70.40;99115.97;218783;1276;23666;-70
2022/03/07 18:39:25;;;;;;;73.20;36.70;;;;;;;0.14;70.29;99119.84;218659;1277;24262;-69
2022/03/07 18:44:46;;;;;;;74.80;36.80;;;;;;;0.16;70.14;99119.60;218942;1276;24249;-68
2022/03/07 18:49:52;;;;;;;73.80;35.60;;;;;;;0.14;70.24;99120.13;219848;1277;22691;-69
2022/03/07 18:55:04;;;;;;;70.90;35.60;;;;;;;0.11;70.00;99127.60;218876;1276;22573;-69
2022/03/07 19:00:11;;;;;;;95.00;46.60;;;;;;;0.02;69.90;99132.72;218992;1277;22581;-70
2022/03/07 19:05:17;;;;;;;112.30;54.00;;;;;;;-0.13;70.26;99135.14;219088;1276;24320;-69
2022/03/07 19:10:34;;;;;;;77.30;39.90;;;;;;;-0.28;70.55;99136.29;219253;1276;25352;-69
2022/03/07 19:15:52;;;;;;;52.10;28.10;;;;;;;-0.44;70.17;99134.57;219542;1276;25325;-69
2022/03/07 19:20:55;;;;;;;50.50;26.20;;;;;;;-0.53;70.45;99133.14;219471;1276;22550;-69
2022/03/07 19:26:00;;;;;;;51.50;23.70;;;;;;;-0.58;70.59;99141.15;218648;1276;430054;-68
2022/03/07 19:31:04;;;;;;;46.80;21.70;;;;;;;-0.63;70.76;99147.56;219102;1276;22842;-70
2022/03/07 19:36:09;;;;;;;44.90;21.80;;;;;;;-0.67;70.49;99154.95;219189;1276;22550;-69
2022/03/07 19:41:14;;;;;;;41.00;20.10;;;;;;;-0.69;70.79;99166.48;219125;1276;22953;-68
2022/03/07 19:46:17;;;;;;;25.40;13.90;;;;;;;-0.63;70.82;99169.80;218998;1277;24260;-70
2022/03/07 19:51:20;;;;;;;25.50;12.60;;;;;;;-0.49;71.10;99160.09;219124;1276;24656;-68
2022/03/07 19:56:23;;;;;;;23.00;12.10;;;;;;;-0.31;70.90;99164.77;219106;1276;22802;-69
2022/03/07 20:01:26;;;;;;;22.30;12.60;;;;;;;-0.19;71.31;99173.44;219031;1276;25448;-70
2022/03/07 20:06:31;;;;;;;24.00;12.30;;;;;;;-0.11;71.00;99175.73;218934;1277;22627;-69
2022/03/07 20:11:34;;;;;;;25.30;12.50;;;;;;;-0.04;71.26;99182.59;218984;1276;24250;-68
2022/03/07 20:16:36;;;;;;;20.20;11.90;;;;;;;-0.02;71.43;99185.05;218744;1276;24292;-69
2022/03/07 20:21:41;;;;;;;22.60;11.50;;;;;;;-0.06;71.39;99188.19;218796;1276;22778;-68
2022/03/07 20:26:43;;;;;;;22.10;11.50;;;;;;;-0.13;71.76;99185.38;218989;1274;22573;-70
2022/03/07 20:31:45;;;;;;;20.70;11.50;;;;;;;-0.22;71.86;99190.35;218860;1276;22637;-70
2022/03/07 20:36:48;;;;;;;23.10;12.10;;;;;;;-0.30;71.90;99191.55;218934;1277;22871;-70
2022/03/07 20:41:50;;;;;;;23.80;12.90;;;;;;;-0.39;72.23;99193.71;218784;1277;22626;-69
2022/03/07 20:46:52;;;;;;;25.80;13.70;;;;;;;-0.47;72.47;99195.19;218937;1276;24236;-70
2022/03/07 20:51:55;;;;;;;23.00;11.70;;;;;;;-0.55;72.49;99197.19;218947;1277;22582;-69
2022/03/07 20:56:57;;;;;;;25.30;12.20;;;;;;;-0.62;72.67;99202.62;219063;1276;22775;-69
2022/03/07 21:02:03;;;;;;;20.50;10.90;;;;;;;-0.70;72.83;99199.95;219194;1276;22652;-69
2022/03/07 21:07:06;;;;;;;23.20;11.60;;;;;;;-0.77;73.09;99200.30;218969;1276;22832;-68
2022/03/07 21:12:12;;;;;;;22.90;12.00;;;;;;;-0.84;73.51;99200.91;219065;1277;22609;-69
2022/03/07 21:17:19;;;;;;;23.30;12.40;;;;;;;-0.90;73.54;99204.51;218912;1277;22674;-71
2022/03/07 21:22:41;;;;;;;19.90;10.80;;;;;;;-0.96;73.90;99202.32;218989;1276;22555;-69
2022/03/07 21:27:50;;;;;;;17.70;10.10;;;;;;;-1.03;73.97;99201.83;219093;1276;25455;-68
2022/03/07 21:33:10;;;;;;;17.80;8.90;;;;;;;-1.08;74.20;99199.64;219356;1276;23809;-69
2022/03/07 21:38:12;;;;;;;15.70;8.60;;;;;;;-1.11;74.27;99199.69;219209;1276;24122;-69
2022/03/07 21:43:15;;;;;;;26.00;13.10;;;;;;;-1.16;74.29;99201.10;219503;1277;22770;-69
2022/03/07 21:48:17;;;;;;;27.10;13.70;;;;;;;-1.23;74.52;99193.85;218980;1277;22533;-70
2022/03/07 21:53:20;;;;;;;27.50;14.10;;;;;;;-1.25;74.59;99195.34;218908;1277;22617;-69
2022/03/07 21:58:32;;;;;;;25.50;14.20;;;;;;;-1.24;74.56;99195.42;218871;1277;22652;-69
2022/03/07 22:03:34;;;;;;;28.50;13.50;;;;;;;-1.23;74.58;99201.73;218996;1278;25407;-68
2022/03/07 22:08:46;;;;;;;26.70;13.30;;;;;;;-1.24;74.62;99210.11;218857;1277;22627;-70
2022/03/07 22:13:48;;;;;;;30.10;13.70;;;;;;;-1.27;74.37;99205.61;219022;1277;25839;-69
2022/03/07 22:18:52;;;;;;;29.50;14.60;;;;;;;-1.32;74.46;99204.19;218827;1276;25306;-69
2022/03/07 22:23:57;;;;;;;33.50;16.60;;;;;;;-1.36;74.35;99202.81;218920;1277;22738;-69
2022/03/07 22:29:00;;;;;;;41.60;18.60;;;;;;;-1.43;74.65;99202.08;218991;1277;25363;-69
2022/03/07 22:34:02;;;;;;;36.00;18.10;;;;;;;-1.49;74.59;99197.98;218808;1277;24278;-70
2022/03/07 22:39:06;;;;;;;39.60;17.70;;;;;;;-1.57;74.71;99196.66;219052;1277;23806;-68
2022/03/07 22:44:09;;;;;;;38.00;17.50;;;;;;;-1.63;74.83;99196.77;218872;1277;23196;-69
2022/03/07 22:49:11;;;;;;;40.00;19.20;;;;;;;-1.68;75.12;99196.39;219097;1277;25549;-68
2022/03/07 22:54:17;;;;;;;36.40;17.80;;;;;;;-1.71;75.30;99195.95;218974;1277;25512;-69
2022/03/07 22:59:19;;;;;;;34.20;17.60;;;;;;;-1.74;75.52;99198.08;219025;1278;22931;-69
2022/03/07 23:04:22;;;;;;;37.50;18.50;;;;;;;-1.78;75.39;99201.21;218937;1277;24301;-69
2022/03/07 23:09:30;;;;;;;31.60;15.10;;;;;;;-1.82;75.77;99201.92;219010;1277;22552;-70
2022/03/07 23:14:32;;;;;;;27.00;13.90;;;;;;;-1.86;75.75;99204.61;219064;1277;24317;-70
2022/03/07 23:19:48;;;;;;;26.50;13.00;;;;;;;-1.89;76.02;99206.27;219016;1278;24378;-70
2022/03/07 23:24:50;;;;;;;24.80;13.00;;;;;;;-1.92;76.10;99210.46;219029;1277;25468;-69
2022/03/07 23:29:53;;;;;;;25.20;12.90;;;;;;;-1.93;76.46;99212.48;218948;1277;23747;-69
2022/03/07 23:34:55;;;;;;;28.10;13.70;;;;;;;-1.94;76.43;99209.60;218765;1277;22545;-69
2022/03/07 23:39:58;;;;;;;22.70;12.30;;;;;;;-1.95;76.58;99206.81;218859;1277;22792;-68
2022/03/07 23:45:00;;;;;;;28.70;14.90;;;;;;;-1.96;76.78;99205.20;218753;1278;23046;-70